Time;durP1;ratioP1;P1;durP2;ratioP2;P2;SDS_P1;SDS_P2;PMS_P1;PMS_P2;Temp;Humidity;BMP_temperature;BMP_pressure;BME280_temperature;BME280_humidity;BME280_pressure;Samples;Min_cycle;Max_cycle;Signal;HPM_P1;HPM_P2
2021/07/04 00:00:29;;;;;;;3.20;1.13;;;;;;;;;;5117637;28;20031;-91
2021/07/04 00:02:56;;;;;;;6.07;2.15;;;;;;;;;;5117933;28;20023;-92
2021/07/04 00:05:25;;;;;;;3.33;1.48;;;;;;;;;;5116215;28;20055;-92
2021/07/04 00:07:51;;;;;;;4.78;1.20;;;;;;;;;;5116325;28;20090;-89
2021/07/04 00:10:23;;;;;;;2.72;1.27;;;;;;;;;;5117496;28;20534;-92
2021/07/04 00:12:48;;;;;;;4.10;2.50;;;;;;;;;;5116134;28;20058;-92
2021/07/04 00:15:16;;;;;;;6.57;2.42;;;;;;;;;;5115996;28;20067;-90
2021/07/04 00:17:43;;;;;;;3.45;1.45;;;;;;;;;;5116147;28;20368;-88
2021/07/04 00:20:12;;;;;;;5.93;2.53;;;;;;;;;;5117588;28;20438;-88
2021/07/04 00:22:38;;;;;;;4.03;2.20;;;;;;;;;;5117192;28;20030;-88
2021/07/04 00:25:07;;;;;;;4.70;2.25;;;;;;;;;;5117213;28;20034;-92
2021/07/04 00:27:33;;;;;;;3.40;2.17;;;;;;;;;;5117139;28;20032;-90
2021/07/04 00:29:58;;;;;;;4.43;2.72;;;;;;;;;;5115887;28;20031;-90
2021/07/04 00:32:24;;;;;;;4.38;1.33;;;;;;;;;;5117191;28;20023;-88
2021/07/04 00:34:51;;;;;;;5.68;2.70;;;;;;;;;;5117188;28;20039;-88
2021/07/04 00:37:16;;;;;;;6.80;2.72;;;;;;;;;;5116938;28;20038;-89
2021/07/04 00:39:42;;;;;;;4.82;3.05;;;;;;;;;;5115737;28;20023;-89
2021/07/04 00:42:11;;;;;;;5.40;2.42;;;;;;;;;;5116886;28;20023;-92
2021/07/04 00:44:37;;;;;;;7.28;2.50;;;;;;;;;;5115655;28;20106;-93
2021/07/04 00:47:03;;;;;;;6.22;3.42;;;;;;;;;;5116765;28;20560;-88
2021/07/04 00:49:28;;;;;;;4.68;3.08;;;;;;;;;;5115462;28;20136;-91
2021/07/04 00:51:54;;;;;;;7.05;5.00;;;;;;;;;;5116750;28;20405;-92
2021/07/04 00:54:20;;;;;;;4.07;2.45;;;;;;;;;;5116670;28;20077;-92
2021/07/04 00:56:45;;;;;;;4.25;2.35;;;;;;;;;;5115325;28;20511;-89
2021/07/04 00:59:12;;;;;;;5.10;2.85;;;;;;;;;;5115333;28;20051;-90
2021/07/04 01:01:38;;;;;;;4.80;2.45;;;;;;;;;;5116456;28;20024;-90
2021/07/04 01:04:03;;;;;;;5.65;2.05;;;;;;;;;;5115227;28;20103;-89
2021/07/04 01:06:29;;;;;;;4.47;1.98;;;;;;;;;;5115078;28;20031;-92
2021/07/04 01:08:54;;;;;;;4.47;2.67;;;;;;;;;;5116134;28;20054;-89
2021/07/04 01:11:20;;;;;;;8.57;2.17;;;;;;;;;;5115136;28;20509;-90
2021/07/04 01:13:46;;;;;;;5.82;2.53;;;;;;;;;;5114926;28;20023;-90
2021/07/04 01:16:12;;;;;;;4.15;1.75;;;;;;;;;;5116058;28;20168;-89
2021/07/04 01:18:37;;;;;;;5.07;3.22;;;;;;;;;;5116229;28;20509;-89
2021/07/04 01:21:05;;;;;;;5.38;2.92;;;;;;;;;;5116246;28;20052;-89
2021/07/04 01:23:31;;;;;;;6.15;2.40;;;;;;;;;;5116276;28;20023;-91
2021/07/04 01:25:57;;;;;;;6.43;1.80;;;;;;;;;;5114666;28;20028;-91
2021/07/04 01:28:24;;;;;;;7.13;3.08;;;;;;;;;;5114895;28;20385;-89
2021/07/04 01:30:56;;;;;;;4.30;2.67;;;;;;;;;;5114704;28;20019;-91
2021/07/04 01:33:28;;;;;;;6.35;2.63;;;;;;;;;;5115913;28;20107;-91
2021/07/04 01:35:54;;;;;;;4.35;1.30;;;;;;;;;;5115917;28;20034;-88
2021/07/04 01:38:20;;;;;;;4.13;2.55;;;;;;;;;;5115730;28;20087;-91
2021/07/04 01:40:46;;;;;;;6.80;3.85;;;;;;;;;;5114480;28;20027;-88
2021/07/04 01:43:12;;;;;;;7.32;3.72;;;;;;;;;;5115698;28;20092;-89
2021/07/04 01:45:39;;;;;;;6.65;3.88;;;;;;;;;;5114428;28;20471;-90
2021/07/04 01:48:06;;;;;;;5.57;1.88;;;;;;;;;;5114247;28;20080;-90
2021/07/04 01:50:35;;;;;;;4.05;2.83;;;;;;;;;;5114685;28;20033;-89
2021/07/04 01:53:02;;;;;;;7.32;1.90;;;;;;;;;;5114188;28;20034;-88
2021/07/04 01:55:27;;;;;;;7.03;3.50;;;;;;;;;;5115545;28;20034;-91
2021/07/04 01:57:54;;;;;;;4.72;1.85;;;;;;;;;;5114094;28;20395;-89
2021/07/04 02:00:23;;;;;;;6.40;2.95;;;;;;;;;;5115395;28;20459;-89
2021/07/04 02:02:52;;;;;;;4.55;1.77;;;;;;;;;;5114016;28;20023;-88
2021/07/04 02:05:18;;;;;;;4.47;2.35;;;;;;;;;;5115121;28;20034;-89
2021/07/04 02:07:44;;;;;;;6.78;2.17;;;;;;;;;;5115203;28;20019;-91
2021/07/04 02:10:15;;;;;;;3.47;1.95;;;;;;;;;;5115209;28;20031;-89
2021/07/04 02:12:41;;;;;;;7.68;3.53;;;;;;;;;;5115176;28;20493;-91
2021/07/04 02:15:16;;;;;;;6.20;2.38;;;;;;;;;;5114847;28;20020;-91
2021/07/04 02:17:42;;;;;;;6.13;3.65;;;;;;;;;;5113801;28;20433;-92
2021/07/04 02:20:23;;;;;;;5.75;3.22;;;;;;;;;;5113437;28;20047;-89
2021/07/04 02:22:49;;;;;;;6.57;2.83;;;;;;;;;;5114750;28;20028;-89
2021/07/04 02:25:15;;;;;;;6.60;3.25;;;;;;;;;;5114910;28;20119;-90
2021/07/04 02:27:40;;;;;;;6.75;2.97;;;;;;;;;;5114739;28;20024;-88
2021/07/04 02:30:07;;;;;;;5.00;3.47;;;;;;;;;;5114834;28;20077;-87
2021/07/04 02:32:33;;;;;;;6.65;3.47;;;;;;;;;;5113585;28;20024;-89
2021/07/04 02:34:58;;;;;;;6.57;3.20;;;;;;;;;;5114735;28;20027;-90
2021/07/04 02:37:24;;;;;;;7.18;3.22;;;;;;;;;;5114754;28;20035;-89
2021/07/04 02:39:49;;;;;;;5.68;3.25;;;;;;;;;;5113676;28;20486;-88
2021/07/04 02:42:15;;;;;;;4.57;2.70;;;;;;;;;;5113470;28;20034;-88
2021/07/04 02:44:41;;;;;;;5.97;3.47;;;;;;;;;;5114523;28;20020;-90
2021/07/04 02:47:06;;;;;;;5.30;2.72;;;;;;;;;;5113216;28;20479;-89
2021/07/04 02:49:32;;;;;;;8.65;4.18;;;;;;;;;;5113381;28;20528;-90
2021/07/04 02:51:58;;;;;;;7.68;2.40;;;;;;;;;;5113243;28;20153;-92
2021/07/04 02:54:23;;;;;;;4.25;2.47;;;;;;;;;;5114389;28;20020;-88
2021/07/04 02:56:49;;;;;;;7.68;3.47;;;;;;;;;;5114412;28;20020;-91
2021/07/04 02:59:15;;;;;;;4.45;3.00;;;;;;;;;;5113057;28;20130;-89
2021/07/04 03:01:40;;;;;;;6.68;2.85;;;;;;;;;;5113102;28;20075;-91
2021/07/04 03:04:06;;;;;;;3.65;1.75;;;;;;;;;;5114379;28;20035;-89
2021/07/04 03:06:31;;;;;;;4.38;2.88;;;;;;;;;;5114107;28;20034;-89
2021/07/04 03:08:57;;;;;;;5.78;1.75;;;;;;;;;;5113047;28;20053;-88
2021/07/04 03:11:23;;;;;;;3.53;2.45;;;;;;;;;;5112937;28;20046;-90
2021/07/04 03:13:48;;;;;;;3.22;1.77;;;;;;;;;;5112924;28;20027;-90
2021/07/04 03:16:14;;;;;;;4.82;3.28;;;;;;;;;;5112627;28;20043;-90
2021/07/04 03:18:40;;;;;;;4.55;1.77;;;;;;;;;;5112877;28;20024;-90
2021/07/04 03:21:05;;;;;;;6.25;3.35;;;;;;;;;;5112801;28;20028;-91
2021/07/04 03:23:31;;;;;;;6.38;2.10;;;;;;;;;;5114058;28;20026;-91
2021/07/04 03:25:57;;;;;;;4.13;2.47;;;;;;;;;;5112679;28;20034;-90
2021/07/04 03:28:23;;;;;;;4.38;3.05;;;;;;;;;;5114310;28;20099;-89
2021/07/04 03:30:48;;;;;;;3.95;2.53;;;;;;;;;;5114032;28;20383;-93
2021/07/04 03:33:14;;;;;;;5.40;2.55;;;;;;;;;;5116973;28;20020;-93
2021/07/04 03:35:40;;;;;;;4.30;3.05;;;;;;;;;;5118540;28;20028;-89
2021/07/04 03:38:05;;;;;;;6.82;3.40;;;;;;;;;;5116911;28;20417;-92
2021/07/04 03:40:31;;;;;;;6.95;3.40;;;;;;;;;;5116836;28;20061;-87
2021/07/04 03:42:58;;;;;;;7.13;3.22;;;;;;;;;;5116819;28;20032;-89
2021/07/04 03:45:24;;;;;;;4.30;3.22;;;;;;;;;;5117948;28;20028;-88
2021/07/04 03:47:49;;;;;;;6.20;3.30;;;;;;;;;;5118007;28;20016;-91
2021/07/04 03:50:15;;;;;;;6.28;3.13;;;;;;;;;;5116717;28;20027;-87
2021/07/04 03:52:41;;;;;;;5.45;2.05;;;;;;;;;;5116780;28;20047;-88
2021/07/04 03:55:09;;;;;;;4.97;2.67;;;;;;;;;;5117835;28;20028;-88
2021/07/04 03:57:35;;;;;;;8.82;2.83;;;;;;;;;;5117752;28;20032;-93
2021/07/04 04:00:03;;;;;;;5.30;3.17;;;;;;;;;;5117789;28;20027;-91
2021/07/04 04:02:28;;;;;;;8.43;3.10;;;;;;;;;;5116455;28;20115;-87
2021/07/04 04:04:56;;;;;;;5.32;3.88;;;;;;;;;;5116475;28;20551;-87
2021/07/04 04:07:22;;;;;;;4.78;3.10;;;;;;;;;;5117551;28;20020;-87
2021/07/04 04:09:49;;;;;;;6.25;3.78;;;;;;;;;;5116598;28;20020;-90
2021/07/04 04:12:18;;;;;;;4.40;3.38;;;;;;;;;;5117839;28;20024;-87
2021/07/04 04:14:43;;;;;;;7.53;4.05;;;;;;;;;;5117714;28;20377;-92
2021/07/04 04:17:09;;;;;;;5.80;3.45;;;;;;;;;;5116049;28;20047;-87
2021/07/04 04:19:35;;;;;;;7.70;2.05;;;;;;;;;;5127588;27;20038;-89
2021/07/04 04:22:01;;;;;;;4.05;1.42;;;;;;;;;;5118327;27;20100;-94
2021/07/04 04:24:27;;;;;;;4.75;3.40;;;;;;;;;;5117395;28;20034;-88
2021/07/04 04:26:52;;;;;;;5.07;3.17;;;;;;;;;;5115974;28;20394;-88
2021/07/04 04:29:18;;;;;;;5.28;1.80;;;;;;;;;;5116062;28;20024;-93
2021/07/04 04:31:44;;;;;;;4.72;2.80;;;;;;;;;;5120595;27;20019;-88
2021/07/04 04:34:10;;;;;;;3.85;1.45;;;;;;;;;;5136138;27;20019;-87
2021/07/04 04:36:36;;;;;;;6.63;3.58;;;;;;;;;;5137807;27;20019;-87
2021/07/04 04:39:04;;;;;;;6.13;3.42;;;;;;;;;;5136291;27;20023;-93
2021/07/04 04:41:32;;;;;;;8.13;2.92;;;;;;;;;;5141016;27;20027;-87
2021/07/04 04:43:58;;;;;;;7.03;1.85;;;;;;;;;;5136444;27;20025;-87
2021/07/04 04:46:24;;;;;;;5.43;2.60;;;;;;;;;;5137589;27;20109;-89
2021/07/04 04:48:49;;;;;;;5.65;5.05;;;;;;;;;;5293496;22;20452;-86
2021/07/04 04:51:15;;;;;;;18.60;9.63;;;;;;;;;;5039618;28;20030;-87
2021/07/04 04:53:43;;;;;;;7.18;1.77;;;;;;;;;;5051829;22;20045;-89
2021/07/04 04:56:09;;;;;;;17.98;13.55;;;;;;;;;;5051389;28;20053;-86
2021/07/04 04:58:34;;;;;;;6.65;5.95;;;;;;;;;;5036293;28;20554;-90
2021/07/04 05:01:00;;;;;;;5.85;4.05;;;;;;;;;;5051343;28;20069;-91
2021/07/04 05:03:26;;;;;;;3.63;2.63;;;;;;;;;;5034681;28;20037;-88
2021/07/04 05:05:51;;;;;;;7.55;3.83;;;;;;;;;;5051161;28;20029;-88
2021/07/04 05:08:17;;;;;;;4.97;3.97;;;;;;;;;;5034465;28;20029;-88
2021/07/04 05:10:43;;;;;;;28.42;17.65;;;;;;;;;;5035767;28;20424;-88
2021/07/04 05:13:08;;;;;;;71.07;42.92;;;;;;;;;;5035804;28;20534;-89
2021/07/04 05:15:34;;;;;;;9.15;4.13;;;;;;;;;;5034397;28;20156;-88
2021/07/04 05:18:06;;;;;;;5.88;4.05;;;;;;;;;;5034360;28;20026;-89
2021/07/04 05:20:32;;;;;;;9.23;4.60;;;;;;;;;;5035937;28;20032;-87
2021/07/04 05:22:58;;;;;;;4.43;2.42;;;;;;;;;;5035782;28;20083;-86
2021/07/04 05:25:24;;;;;;;8.30;4.95;;;;;;;;;;5035716;28;20025;-87
2021/07/04 05:27:49;;;;;;;4.88;2.95;;;;;;;;;;5253689;22;20053;-90
2021/07/04 05:39:42;;;;;;;5.00;2.45;;;;;;;;;;5561910;23;20129;-90
2021/07/04 05:42:07;;;;;;;4.95;3.22;;;;;;;;;;4976246;28;20071;-88
2021/07/04 05:44:33;;;;;;;5.38;2.80;;;;;;;;;;4976408;28;20466;-90
2021/07/04 05:46:59;;;;;;;4.82;1.48;;;;;;;;;;4958910;28;20073;-90
2021/07/04 05:49:25;;;;;;;3.85;1.58;;;;;;;;;;4958900;28;20386;-89
2021/07/04 05:51:51;;;;;;;5.47;2.85;;;;;;;;;;4976260;28;20023;-89
2021/07/04 05:54:17;;;;;;;5.65;3.83;;;;;;;;;;4975970;28;20026;-89
2021/07/04 05:56:43;;;;;;;9.07;6.85;;;;;;;;;;4956965;28;20474;-88
2021/07/04 05:59:08;;;;;;;6.32;3.53;;;;;;;;;;4958974;28;20026;-86
2021/07/04 06:01:34;;;;;;;5.70;2.90;;;;;;;;;;4975295;28;20159;-88
2021/07/04 06:04:00;;;;;;;6.78;3.33;;;;;;;;;;4951822;28;20461;-88
2021/07/04 06:06:26;;;;;;;19.92;18.08;;;;;;;;;;4949094;28;20550;-90
2021/07/04 06:08:51;;;;;;;15.73;6.82;;;;;;;;;;4950391;28;20027;-91
2021/07/04 06:11:17;;;;;;;13.07;9.50;;;;;;;;;;4969543;28;20019;-93
2021/07/04 06:13:43;;;;;;;5.22;3.60;;;;;;;;;;4971347;28;20023;-93
2021/07/04 06:16:10;;;;;;;7.07;5.72;;;;;;;;;;4964788;28;20037;-90
2021/07/04 06:18:36;;;;;;;5.88;2.70;;;;;;;;;;4969273;28;20015;-88
2021/07/04 06:21:02;;;;;;;17.30;15.90;;;;;;;;;;4974523;28;20026;-90
2021/07/04 06:23:28;;;;;;;6.55;2.60;;;;;;;;;;4957231;28;20031;-91
2021/07/04 06:25:54;;;;;;;6.70;5.93;;;;;;;;;;4974117;28;20486;-89
2021/07/04 06:28:20;;;;;;;5.18;2.47;;;;;;;;;;4974913;28;20031;-90
2021/07/04 06:30:45;;;;;;;4.38;2.42;;;;;;;;;;4974443;28;20050;-88
2021/07/04 06:33:11;;;;;;;7.15;3.90;;;;;;;;;;4974433;28;20037;-88
2021/07/04 06:35:38;;;;;;;6.28;4.15;;;;;;;;;;4974354;28;20379;-88
2021/07/04 06:38:03;;;;;;;4.65;2.95;;;;;;;;;;4975328;28;20042;-88
2021/07/04 06:40:29;;;;;;;3.33;2.20;;;;;;;;;;4975312;28;20129;-88
2021/07/04 06:42:55;;;;;;;7.22;3.17;;;;;;;;;;4975434;28;20067;-88
2021/07/04 06:45:21;;;;;;;5.13;3.70;;;;;;;;;;4975243;28;20063;-88
2021/07/04 06:47:48;;;;;;;3.50;2.17;;;;;;;;;;4975066;28;20031;-88
2021/07/04 06:50:16;;;;;;;4.03;3.33;;;;;;;;;;4975392;28;20454;-88
2021/07/04 06:52:44;;;;;;;3.97;1.60;;;;;;;;;;4957121;28;20034;-88
2021/07/04 06:55:10;;;;;;;3.00;1.70;;;;;;;;;;4957584;28;20023;-88
2021/07/04 06:57:36;;;;;;;4.65;2.50;;;;;;;;;;4974998;28;20038;-89
2021/07/04 07:00:06;;;;;;;3.75;1.55;;;;;;;;;;4975230;28;20027;-89
2021/07/04 07:02:32;;;;;;;2.92;1.45;;;;;;;;;;4974909;28;20062;-89
2021/07/04 07:04:58;;;;;;;4.13;1.42;;;;;;;;;;4974892;28;20066;-89
2021/07/04 07:07:24;;;;;;;5.45;1.67;;;;;;;;;;4957331;28;20034;-89
2021/07/04 07:09:49;;;;;;;3.58;2.00;;;;;;;;;;4974882;28;20481;-88
2021/07/04 07:12:15;;;;;;;2.78;1.42;;;;;;;;;;4975128;28;20042;-89
2021/07/04 07:14:41;;;;;;;3.38;1.42;;;;;;;;;;4957492;28;20053;-89
2021/07/04 07:17:07;;;;;;;3.97;2.05;;;;;;;;;;4975014;28;20366;-89
2021/07/04 07:19:34;;;;;;;4.00;1.85;;;;;;;;;;4974354;28;20124;-90
2021/07/04 07:22:01;;;;;;;2.90;1.88;;;;;;;;;;4975090;28;20026;-91
2021/07/04 07:24:28;;;;;;;3.10;1.70;;;;;;;;;;4974711;28;20442;-89
2021/07/04 07:26:53;;;;;;;4.03;1.52;;;;;;;;;;4974761;28;20034;-89
2021/07/04 07:29:19;;;;;;;22.90;16.27;;;;;;;;;;4974831;28;20061;-89
2021/07/04 07:31:46;;;;;;;10.35;7.18;;;;;;;;;;4974652;28;20030;-93
2021/07/04 07:34:12;;;;;;;2.78;1.08;;;;;;;;;;4957202;28;20102;-92
2021/07/04 07:36:38;;;;;;;10.48;6.78;;;;;;;;;;4993870;28;20026;-93
2021/07/04 07:39:05;;;;;;;5.63;3.08;;;;;;;;;;4995214;28;20026;-90
2021/07/04 07:41:34;;;;;;;4.72;1.35;;;;;;;;;;4994156;28;20050;-93
2021/07/04 07:44:00;;;;;;;6.32;2.85;;;;;;;;;;4978117;28;20034;-91
2021/07/04 07:46:26;;;;;;;5.20;3.10;;;;;;;;;;4977757;28;20034;-93
2021/07/04 07:48:51;;;;;;;4.75;3.03;;;;;;;;;;4977700;28;20097;-92
2021/07/04 07:51:18;;;;;;;5.05;4.47;;;;;;;;;;4977099;28;20041;-93
2021/07/04 07:53:44;;;;;;;3.03;2.05;;;;;;;;;;4976440;28;20034;-92
2021/07/04 07:56:10;;;;;;;2.92;1.60;;;;;;;;;;4976663;28;20027;-91
2021/07/04 07:58:35;;;;;;;4.53;1.67;;;;;;;;;;4976586;28;20022;-90
2021/07/04 08:01:02;;;;;;;5.47;3.05;;;;;;;;;;4994467;28;20077;-93
2021/07/04 08:03:27;;;;;;;42.13;38.53;;;;;;;;;;4994035;28;20026;-90
2021/07/04 08:05:53;;;;;;;8.23;6.65;;;;;;;;;;4976175;28;20041;-91
2021/07/04 08:08:19;;;;;;;4.13;2.08;;;;;;;;;;4975678;28;20045;-94
2021/07/04 08:10:44;;;;;;;3.45;1.40;;;;;;;;;;4976409;28;20034;-91
2021/07/04 08:13:10;;;;;;;2.08;1.02;;;;;;;;;;4976548;28;20117;-91
2021/07/04 08:15:36;;;;;;;6.82;6.13;;;;;;;;;;4976346;28;20165;-92
2021/07/04 08:18:01;;;;;;;5.50;3.33;;;;;;;;;;4976519;28;20088;-93
2021/07/04 08:20:28;;;;;;;4.47;3.03;;;;;;;;;;4996810;28;20038;-92
2021/07/04 08:22:54;;;;;;;8.63;7.40;;;;;;;;;;4980282;28;20026;-92
2021/07/04 08:25:20;;;;;;;1.88;1.65;;;;;;;;;;4997801;28;20030;-93
2021/07/04 08:27:46;;;;;;;2.78;1.92;;;;;;;;;;4980266;28;20026;-93
2021/07/04 08:30:13;;;;;;;2.53;1.30;;;;;;;;;;4997442;28;20030;-91
2021/07/04 08:32:39;;;;;;;2.92;1.25;;;;;;;;;;4979919;28;20109;-92
2021/07/04 08:35:09;;;;;;;10.48;6.05;;;;;;;;;;4982551;28;20057;-93
2021/07/04 08:37:35;;;;;;;1140.28;586.50;;;;;;;;;;4981401;28;20478;-90
2021/07/04 08:40:02;;;;;;;29.67;22.40;;;;;;;;;;4980273;28;20054;-92
2021/07/04 08:42:27;;;;;;;88.72;72.65;;;;;;;;;;4979573;28;20023;-93
2021/07/04 08:44:55;;;;;;;30.80;27.52;;;;;;;;;;4979743;28;20030;-92
2021/07/04 08:47:22;;;;;;;5.25;4.32;;;;;;;;;;4979508;28;20436;-90
2021/07/04 08:49:48;;;;;;;2.03;1.23;;;;;;;;;;4997099;28;20498;-93
2021/07/04 08:52:15;;;;;;;2.15;1.17;;;;;;;;;;4997319;28;20033;-95
2021/07/04 08:54:40;;;;;;;3.05;1.70;;;;;;;;;;4996787;28;20109;-92
2021/07/04 08:57:10;;;;;;;2.70;1.58;;;;;;;;;;4996630;28;20069;-90
2021/07/04 08:59:36;;;;;;;;;;;;;;;;;;4979493;28;20474;-91
2021/07/04 09:02:15;;;;;;;8.27;7.25;;;;;;;;;;4996582;28;19921;-92
2021/07/04 09:05:06;;;;;;;2.10;1.17;;;;;;;;;;4996652;28;20030;-91
2021/07/04 09:07:33;;;;;;;6.07;4.22;;;;;;;;;;4978839;28;20121;-91
2021/07/04 09:10:06;;;;;;;2.47;1.35;;;;;;;;;;4996366;28;20382;-90
2021/07/04 09:12:37;;;;;;;6.47;5.25;;;;;;;;;;4979049;28;20634;-91
2021/07/04 09:15:23;;;;;;;2.25;1.70;;;;;;;;;;4996464;28;20034;-92
2021/07/04 09:17:51;;;;;;;2.88;1.55;;;;;;;;;;4978842;28;20030;-90
2021/07/04 09:20:32;;;;;;;6.45;5.85;;;;;;;;;;4996611;28;20027;-91
2021/07/04 09:23:00;;;;;;;3.67;2.45;;;;;;;;;;4996267;28;20481;-92
2021/07/04 09:25:30;;;;;;;4.97;4.25;;;;;;;;;;4979069;28;20098;-92
2021/07/04 09:28:16;;;;;;;2.58;1.35;;;;;;;;;;4997059;28;20037;-92
2021/07/04 09:30:52;;;;;;;10.70;9.13;;;;;;;;;;4978196;28;20397;-92
2021/07/04 09:33:27;;;;;;;2.78;1.58;;;;;;;;;;4978763;28;20030;-92
2021/07/04 09:36:11;;;;;;;2.47;1.60;;;;;;;;;;4996411;28;20109;-94
2021/07/04 09:38:43;;;;;;;30.38;26.88;;;;;;;;;;4996255;28;20029;-92
2021/07/04 09:41:12;;;;;;;3.22;2.35;;;;;;;;;;4978858;28;20457;-92
2021/07/04 09:43:42;;;;;;;9.00;8.10;;;;;;;;;;4980715;28;20030;-93
2021/07/04 09:46:13;;;;;;;1.65;1.08;;;;;;;;;;4996476;28;20026;-93
2021/07/04 09:48:48;;;;;;;2.95;1.52;;;;;;;;;;4996111;28;20018;-91
2021/07/04 09:51:19;;;;;;;4.22;2.80;;;;;;;;;;4979751;28;20034;-93
2021/07/04 09:53:51;;;;;;;5.85;4.97;;;;;;;;;;4998945;28;20077;-92
2021/07/04 09:56:31;;;;;;;4.97;3.53;;;;;;;;;;4997150;28;20022;-91
2021/07/04 09:59:00;;;;;;;4.03;2.78;;;;;;;;;;4998484;28;20030;-94
2021/07/04 10:01:40;;;;;;;4.00;3.60;;;;;;;;;;4998872;28;20031;-93
2021/07/04 10:04:24;;;;;;;3.30;1.20;;;;;;;;;;4983537;28;20018;-92
2021/07/04 10:06:51;;;;;;;5.03;3.47;;;;;;;;;;4978821;28;20038;-91
2021/07/04 10:09:19;;;;;;;2.22;1.25;;;;;;;;;;5008476;28;20050;-90
2021/07/04 10:11:46;;;;;;;27.15;25.00;;;;;;;;;;4988276;28;20031;-92
2021/07/04 10:14:12;;;;;;;2.05;1.33;;;;;;;;;;4967065;28;20109;-89
2021/07/04 10:16:42;;;;;;;8.27;7.43;;;;;;;;;;4979806;28;20096;-91
2021/07/04 10:19:13;;;;;;;5.40;4.28;;;;;;;;;;4996368;28;20027;-88
2021/07/04 10:21:40;;;;;;;2.90;2.38;;;;;;;;;;4995296;28;20030;-88
2021/07/04 10:24:07;;;;;;;2.45;1.33;;;;;;;;;;4978134;28;20061;-93
2021/07/04 10:26:36;;;;;;;3.33;2.08;;;;;;;;;;4998138;28;20030;-90
2021/07/04 10:29:04;;;;;;;3.78;2.40;;;;;;;;;;4995924;28;20041;-92
2021/07/04 10:31:34;;;;;;;6.53;4.07;;;;;;;;;;4998985;28;20086;-93
2021/07/04 10:34:08;;;;;;;3.45;2.30;;;;;;;;;;4979802;28;20533;-93
2021/07/04 10:36:55;;;;;;;3.75;2.67;;;;;;;;;;5006313;28;20190;-93
2021/07/04 10:39:37;;;;;;;11.57;10.48;;;;;;;;;;4996188;28;20030;-92
2021/07/04 10:42:05;;;;;;;4.45;1.60;;;;;;;;;;5024454;23;20056;-94
2021/07/04 10:44:50;;;;;;;2.22;1.48;;;;;;;;;;5023462;28;20049;-94
2021/07/04 10:47:20;;;;;;;2.60;0.90;;;;;;;;;;5023126;28;20052;-94
2021/07/04 10:50:03;;;;;;;3.53;1.95;;;;;;;;;;5022587;28;20081;-93
2021/07/04 10:52:53;;;;;;;2.13;1.73;;;;;;;;;;5028076;28;20026;-92
2021/07/04 10:55:33;;;;;;;3.67;1.08;;;;;;;;;;5018297;28;20030;-91
2021/07/04 10:58:02;;;;;;;2.60;0.50;;;;;;;;;;5007698;28;20494;-93
2021/07/04 11:00:39;;;;;;;2.35;1.63;;;;;;;;;;4994814;28;20030;-93
2021/07/04 11:03:30;;;;;;;4.20;1.45;;;;;;;;;;5000083;28;20061;-93
2021/07/04 11:05:56;;;;;;;3.63;1.75;;;;;;;;;;5016429;28;20030;-92
2021/07/04 11:08:53;;;;;;;2.80;1.88;;;;;;;;;;5020123;28;20026;-94
2021/07/04 11:11:33;;;;;;;2.75;1.90;;;;;;;;;;5026071;28;20023;-93
2021/07/04 11:14:16;;;;;;;4.45;2.38;;;;;;;;;;5025771;28;20057;-92
2021/07/04 11:17:02;;;;;;;4.32;3.78;;;;;;;;;;5026595;28;20052;-93
2021/07/04 11:19:29;;;;;;;3.13;1.42;;;;;;;;;;5030125;28;20070;-93
2021/07/04 11:22:01;;;;;;;2.45;1.52;;;;;;;;;;5018796;28;20049;-94
2021/07/04 11:24:28;;;;;;;2.50;1.20;;;;;;;;;;5032658;28;20036;-92
2021/07/04 11:27:20;;;;;;;1.92;1.25;;;;;;;;;;5013145;28;20082;-92
2021/07/04 11:30:24;;;;;;;2.88;1.33;;;;;;;;;;5004595;28;20026;-92
2021/07/04 11:33:19;;;;;;;2.17;1.23;;;;;;;;;;5004059;28;20039;-92
2021/07/04 11:35:46;;;;;;;2.50;1.67;;;;;;;;;;5008511;28;20027;-93
2021/07/04 11:38:24;;;;;;;2.80;1.63;;;;;;;;;;5010802;28;20042;-94
2021/07/04 11:40:50;;;;;;;3.53;1.85;;;;;;;;;;5006104;28;20066;-94
2021/07/04 11:43:23;;;;;;;3.08;1.52;;;;;;;;;;5002354;28;20023;-93
2021/07/04 11:45:57;;;;;;;2.47;1.55;;;;;;;;;;5014419;28;20053;-93
2021/07/04 11:48:52;;;;;;;2.83;1.52;;;;;;;;;;5012453;28;20032;-90
2021/07/04 11:51:43;;;;;;;2.22;1.20;;;;;;;;;;4999894;28;20493;-91
2021/07/04 11:54:29;;;;;;;2.97;1.88;;;;;;;;;;5003771;28;21274;-91
2021/07/04 11:59:58;;;;;;;2.00;0.75;;;;;;;;;;5001697;28;20105;-93
2021/07/04 12:02:25;;;;;;;2.70;1.58;;;;;;;;;;5002464;28;20026;-92
2021/07/04 12:04:51;;;;;;;1.90;0.93;;;;;;;;;;4991875;28;20023;-89
2021/07/04 12:07:22;;;;;;;3.15;1.20;;;;;;;;;;4987442;28;20033;-89
2021/07/04 12:09:53;;;;;;;5.55;2.00;;;;;;;;;;4994506;28;20473;-90
2021/07/04 12:12:27;;;;;;;3.15;1.60;;;;;;;;;;4994270;28;20389;-90
2021/07/04 12:14:56;;;;;;;2.78;0.40;;;;;;;;;;4994540;28;20022;-89
2021/07/04 12:17:24;;;;;;;2.97;0.57;;;;;;;;;;4995431;28;20474;-90
2021/07/04 12:20:02;;;;;;;5.20;1.27;;;;;;;;;;4997625;28;20058;-90
2021/07/04 12:22:34;;;;;;;3.83;0.70;;;;;;;;;;4997698;28;20022;-92
2021/07/04 12:25:02;;;;;;;2.40;1.13;;;;;;;;;;4988272;28;20506;-90
2021/07/04 12:27:43;;;;;;;2.65;1.23;;;;;;;;;;4997130;28;20062;-88
2021/07/04 12:30:16;;;;;;;2.65;1.23;;;;;;;;;;4989593;28;20030;-91
2021/07/04 12:32:47;;;;;;;2.30;0.70;;;;;;;;;;4997560;28;20022;-90
2021/07/04 12:35:41;;;;;;;2.55;2.03;;;;;;;;;;4997045;28;20450;-93
2021/07/04 12:38:17;;;;;;;2.08;0.77;;;;;;;;;;4996439;28;20042;-92
2021/07/04 12:40:54;;;;;;;2.45;1.55;;;;;;;;;;4996102;28;20121;-92
2021/07/04 12:43:23;;;;;;;2.58;1.65;;;;;;;;;;5016708;28;20104;-91
2021/07/04 12:45:51;;;;;;;2.30;1.58;;;;;;;;;;4998634;28;20018;-92
2021/07/04 12:48:20;;;;;;;3.35;1.48;;;;;;;;;;5016360;28;20025;-92
2021/07/04 12:50:54;;;;;;;2.70;1.42;;;;;;;;;;4998651;28;20056;-90
2021/07/04 12:53:21;;;;;;;2.60;1.55;;;;;;;;;;5016691;28;20501;-92
2021/07/04 12:55:48;;;;;;;4.82;0.60;;;;;;;;;;4998686;28;20033;-92
2021/07/04 12:58:24;;;;;;;2.17;1.30;;;;;;;;;;5016346;28;20481;-92
2021/07/04 13:00:53;;;;;;;4.10;1.38;;;;;;;;;;5016678;28;20054;-92
2021/07/04 13:03:40;;;;;;;3.22;1.63;;;;;;;;;;5016452;28;20029;-90
2021/07/04 13:06:06;;;;;;;2.10;0.47;;;;;;;;;;5015522;28;20022;-92
2021/07/04 13:08:32;;;;;;;1.70;0.68;;;;;;;;;;4998715;28;20056;-93
2021/07/04 13:10:58;;;;;;;4.03;0.52;;;;;;;;;;5016136;28;20018;-90
2021/07/04 13:13:23;;;;;;;3.40;1.80;;;;;;;;;;4998482;28;20117;-88
2021/07/04 13:15:49;;;;;;;4.90;0.95;;;;;;;;;;5016222;28;20057;-89
2021/07/04 13:18:28;;;;;;;2.35;1.50;;;;;;;;;;5016062;28;20108;-90
2021/07/04 13:20:55;;;;;;;2.50;1.33;;;;;;;;;;4998385;28;20249;-92
2021/07/04 13:23:22;;;;;;;2.53;1.25;;;;;;;;;;4998266;28;20050;-91
2021/07/04 13:25:56;;;;;;;2.45;1.73;;;;;;;;;;4998012;28;20104;-91
2021/07/04 13:28:30;;;;;;;3.35;1.98;;;;;;;;;;4998182;28;20393;-91
2021/07/04 13:30:57;;;;;;;2.20;1.58;;;;;;;;;;4998154;28;20030;-91
2021/07/04 13:33:28;;;;;;;2.10;0.65;;;;;;;;;;5015673;28;20033;-91
2021/07/04 13:35:54;;;;;;;2.30;0.68;;;;;;;;;;4998111;28;20030;-90
2021/07/04 13:38:20;;;;;;;2.17;0.65;;;;;;;;;;4997982;28;20136;-91
2021/07/04 13:40:49;;;;;;;2.78;1.27;;;;;;;;;;5015267;28;20057;-92
2021/07/04 13:43:16;;;;;;;2.50;1.65;;;;;;;;;;4997729;28;20041;-89
2021/07/04 13:45:45;;;;;;;2.10;0.60;;;;;;;;;;4997830;28;20113;-91
2021/07/04 13:48:12;;;;;;;;;;;;;;;;;;4998128;28;20540;-90
2021/07/04 13:50:39;;;;;;;3.08;0.90;;;;;;;;;;5015389;28;19974;-90
2021/07/04 13:53:07;;;;;;;3.42;1.83;;;;;;;;;;4997640;28;20366;-91
2021/07/04 13:55:33;;;;;;;3.30;0.98;;;;;;;;;;4997505;28;20033;-90
2021/07/04 13:57:59;;;;;;;3.22;0.88;;;;;;;;;;5015158;28;20031;-91
2021/07/04 14:00:25;;;;;;;2.25;1.40;;;;;;;;;;5015137;28;20030;-89
2021/07/04 14:02:50;;;;;;;2.28;0.50;;;;;;;;;;5015279;28;20029;-91
2021/07/04 14:05:16;;;;;;;2.33;1.20;;;;;;;;;;4997434;28;20081;-89
2021/07/04 14:07:42;;;;;;;2.47;0.57;;;;;;;;;;4997273;28;20033;-91
2021/07/04 14:10:09;;;;;;;3.53;1.15;;;;;;;;;;5015133;28;20036;-90
2021/07/04 14:12:35;;;;;;;2.40;1.38;;;;;;;;;;5014777;28;20033;-91
2021/07/04 14:15:01;;;;;;;2.78;1.40;;;;;;;;;;4997245;28;20382;-89
2021/07/04 14:17:27;;;;;;;3.22;1.30;;;;;;;;;;5013895;28;20033;-91
2021/07/04 14:19:53;;;;;;;3.58;1.98;;;;;;;;;;4997074;28;20038;-92
2021/07/04 14:22:20;;;;;;;2.90;1.80;;;;;;;;;;4997052;28;20112;-90
2021/07/04 14:24:46;;;;;;;3.30;1.65;;;;;;;;;;5014546;28;20026;-90
2021/07/04 14:27:12;;;;;;;2.80;1.50;;;;;;;;;;5014950;28;20041;-91
2021/07/04 14:29:38;;;;;;;2.55;0.70;;;;;;;;;;5014486;28;20106;-91
2021/07/04 14:32:04;;;;;;;2.78;1.42;;;;;;;;;;5014531;28;20026;-90
2021/07/04 14:34:30;;;;;;;3.03;1.58;;;;;;;;;;4996835;28;20029;-92
2021/07/04 14:36:55;;;;;;;5.63;3.20;;;;;;;;;;4996868;28;20417;-90
2021/07/04 14:39:21;;;;;;;2.42;1.05;;;;;;;;;;4996907;28;20481;-90
2021/07/04 14:41:47;;;;;;;3.35;1.73;;;;;;;;;;4996507;28;20100;-91
2021/07/04 14:44:13;;;;;;;2.47;0.85;;;;;;;;;;4996685;28;20034;-91
2021/07/04 14:46:40;;;;;;;2.42;1.70;;;;;;;;;;4996620;28;20021;-91
2021/07/04 14:49:08;;;;;;;2.70;1.73;;;;;;;;;;5003162;28;20033;-93
2021/07/04 14:51:37;;;;;;;6.93;0.95;;;;;;;;;;5027845;28;20113;-93
2021/07/04 14:54:06;;;;;;;2.92;0.63;;;;;;;;;;5001768;28;20030;-94
2021/07/04 14:56:34;;;;;;;3.20;1.27;;;;;;;;;;5037664;28;20037;-91
2021/07/04 14:59:00;;;;;;;2.90;1.58;;;;;;;;;;5020930;28;20103;-92
2021/07/04 15:01:26;;;;;;;4.95;1.85;;;;;;;;;;5010803;28;20076;-92
2021/07/04 15:03:52;;;;;;;3.38;1.73;;;;;;;;;;4997769;28;20076;-92